sensor_id;sensor_type;location;lat;lon;timestamp;temperature;humidity
6520;DHT22;3293;51.690;5.982;2023-10-13T00:01:40;16.80;99.90
6520;DHT22;3293;51.690;5.982;2023-10-13T00:06:39;16.80;99.90
6520;DHT22;3293;51.690;5.982;2023-10-13T00:11:42;16.80;99.90
6520;DHT22;3293;51.690;5.982;2023-10-13T00:16:46;16.80;99.90
6520;DHT22;3293;51.690;5.982;2023-10-13T00:22:00;16.80;99.90
6520;DHT22;3293;51.690;5.982;2023-10-13T00:27:19;16.80;99.90
6520;DHT22;3293;51.690;5.982;2023-10-13T00:32:36;16.80;99.90
6520;DHT22;3293;51.690;5.982;2023-10-13T00:37:40;16.80;99.90
6520;DHT22;3293;51.690;5.982;2023-10-13T00:42:44;16.80;99.90
6520;DHT22;3293;51.690;5.982;2023-10-13T00:47:50;16.80;99.90
6520;DHT22;3293;51.690;5.982;2023-10-13T00:52:56;16.80;99.90
6520;DHT22;3293;51.690;5.982;2023-10-13T00:57:57;16.80;99.90
6520;DHT22;3293;51.690;5.982;2023-10-13T01:03:02;16.80;99.90
6520;DHT22;3293;51.690;5.982;2023-10-13T01:08:08;16.80;99.90
6520;DHT22;3293;51.690;5.982;2023-10-13T01:13:12;16.80;99.90
6520;DHT22;3293;51.690;5.982;2023-10-13T01:18:12;16.80;99.90
6520;DHT22;3293;51.690;5.982;2023-10-13T01:23:13;16.80;99.90
6520;DHT22;3293;51.690;5.982;2023-10-13T01:28:17;16.80;99.90
6520;DHT22;3293;51.690;5.982;2023-10-13T01:33:20;16.80;99.90
6520;DHT22;3293;51.690;5.982;2023-10-13T01:38:26;16.80;99.90
6520;DHT22;3293;51.690;5.982;2023-10-13T01:43:27;16.80;99.90
6520;DHT22;3293;51.690;5.982;2023-10-13T01:48:26;16.80;99.90
6520;DHT22;3293;51.690;5.982;2023-10-13T01:53:28;16.80;99.90
6520;DHT22;3293;51.690;5.982;2023-10-13T01:58:28;16.80;99.90
6520;DHT22;3293;51.690;5.982;2023-10-13T02:03:29;16.80;99.90
6520;DHT22;3293;51.690;5.982;2023-10-13T02:08:30;16.70;99.90
6520;DHT22;3293;51.690;5.982;2023-10-13T02:13:30;16.70;99.90
6520;DHT22;3293;51.690;5.982;2023-10-13T02:18:30;16.70;99.90
6520;DHT22;3293;51.690;5.982;2023-10-13T02:23:41;16.70;99.90
6520;DHT22;3293;51.690;5.982;2023-10-13T02:28:45;16.70;99.90
6520;DHT22;3293;51.690;5.982;2023-10-13T02:33:53;16.60;99.90
6520;DHT22;3293;51.690;5.982;2023-10-13T02:38:53;16.70;99.90
6520;DHT22;3293;51.690;5.982;2023-10-13T02:43:57;16.70;99.90
6520;DHT22;3293;51.690;5.982;2023-10-13T02:48:57;16.70;99.90
6520;DHT22;3293;51.690;5.982;2023-10-13T02:54:02;16.70;99.90
6520;DHT22;3293;51.690;5.982;2023-10-13T02:59:03;16.70;99.90
6520;DHT22;3293;51.690;5.982;2023-10-13T03:04:05;16.80;99.90
6520;DHT22;3293;51.690;5.982;2023-10-13T03:09:09;16.80;99.90
6520;DHT22;3293;51.690;5.982;2023-10-13T03:14:22;16.80;99.90
6520;DHT22;3293;51.690;5.982;2023-10-13T03:19:31;16.80;99.90
6520;DHT22;3293;51.690;5.982;2023-10-13T03:24:38;16.90;99.90
6520;DHT22;3293;51.690;5.982;2023-10-13T03:29:47;16.80;99.90
6520;DHT22;3293;51.690;5.982;2023-10-13T03:34:47;16.80;99.90
6520;DHT22;3293;51.690;5.982;2023-10-13T03:40:00;16.90;99.90
6520;DHT22;3293;51.690;5.982;2023-10-13T03:44:59;16.90;99.90
6520;DHT22;3293;51.690;5.982;2023-10-13T03:50:00;16.80;99.90
6520;DHT22;3293;51.690;5.982;2023-10-13T03:55:15;16.80;99.90
6520;DHT22;3293;51.690;5.982;2023-10-13T04:00:18;16.80;99.90
6520;DHT22;3293;51.690;5.982;2023-10-13T04:05:27;16.90;99.90
6520;DHT22;3293;51.690;5.982;2023-10-13T04:10:40;16.90;99.90
6520;DHT22;3293;51.690;5.982;2023-10-13T04:15:43;17.00;99.90
6520;DHT22;3293;51.690;5.982;2023-10-13T04:21:03;16.90;99.90
6520;DHT22;3293;51.690;5.982;2023-10-13T04:26:18;17.00;99.90
6520;DHT22;3293;51.690;5.982;2023-10-13T04:31:21;17.00;99.90
6520;DHT22;3293;51.690;5.982;2023-10-13T04:36:39;17.10;99.90
6520;DHT22;3293;51.690;5.982;2023-10-13T04:41:45;17.10;99.90
6520;DHT22;3293;51.690;5.982;2023-10-13T04:46:58;17.20;99.90
6520;DHT22;3293;51.690;5.982;2023-10-13T04:52:00;17.20;99.90
6520;DHT22;3293;51.690;5.982;2023-10-13T04:57:12;17.30;99.90
6520;DHT22;3293;51.690;5.982;2023-10-13T05:02:31;17.20;99.90
6520;DHT22;3293;51.690;5.982;2023-10-13T05:07:37;17.30;99.90
6520;DHT22;3293;51.690;5.982;2023-10-13T05:12:55;17.30;99.90
6520;DHT22;3293;51.690;5.982;2023-10-13T05:18:14;17.40;99.90
6520;DHT22;3293;51.690;5.982;2023-10-13T05:23:32;17.40;99.90
6520;DHT22;3293;51.690;5.982;2023-10-13T05:28:50;17.40;99.90
6520;DHT22;3293;51.690;5.982;2023-10-13T05:34:09;17.50;99.90
6520;DHT22;3293;51.690;5.982;2023-10-13T05:39:27;17.50;99.90
6520;DHT22;3293;51.690;5.982;2023-10-13T05:44:46;17.50;99.90
6520;DHT22;3293;51.690;5.982;2023-10-13T05:50:05;17.50;99.90
6520;DHT22;3293;51.690;5.982;2023-10-13T05:55:13;17.50;99.90
6520;DHT22;3293;51.690;5.982;2023-10-13T06:00:48;17.50;99.90
6520;DHT22;3293;51.690;5.982;2023-10-13T06:06:07;17.60;99.90
6520;DHT22;3293;51.690;5.982;2023-10-13T06:11:25;17.60;99.90
6520;DHT22;3293;51.690;5.982;2023-10-13T06:16:44;17.60;99.90
6520;DHT22;3293;51.690;5.982;2023-10-13T06:22:02;17.60;99.90
6520;DHT22;3293;51.690;5.982;2023-10-13T06:27:21;17.60;99.90
6520;DHT22;3293;51.690;5.982;2023-10-13T06:32:39;17.60;99.90
6520;DHT22;3293;51.690;5.982;2023-10-13T06:37:40;17.70;99.90
6520;DHT22;3293;51.690;5.982;2023-10-13T06:42:42;17.70;99.90
6520;DHT22;3293;51.690;5.982;2023-10-13T06:47:42;17.70;99.90
6520;DHT22;3293;51.690;5.982;2023-10-13T06:52:43;17.70;99.90
6520;DHT22;3293;51.690;5.982;2023-10-13T06:57:43;17.80;99.90
6520;DHT22;3293;51.690;5.982;2023-10-13T07:02:43;17.80;99.90
6520;DHT22;3293;51.690;5.982;2023-10-13T07:07:43;17.80;99.90
6520;DHT22;3293;51.690;5.982;2023-10-13T07:12:43;17.80;99.90
6520;DHT22;3293;51.690;5.982;2023-10-13T07:17:44;17.70;99.90
6520;DHT22;3293;51.690;5.982;2023-10-13T07:22:44;17.80;99.90
6520;DHT22;3293;51.690;5.982;2023-10-13T07:28:07;17.80;99.90
6520;DHT22;3293;51.690;5.982;2023-10-13T07:33:10;17.80;99.90
6520;DHT22;3293;51.690;5.982;2023-10-13T07:38:13;17.80;99.90
6520;DHT22;3293;51.690;5.982;2023-10-13T07:43:13;17.80;99.90
6520;DHT22;3293;51.690;5.982;2023-10-13T07:48:13;17.80;99.90
6520;DHT22;3293;51.690;5.982;2023-10-13T07:53:19;17.80;99.90
6520;DHT22;3293;51.690;5.982;2023-10-13T07:58:23;18.00;99.90
6520;DHT22;3293;51.690;5.982;2023-10-13T08:03:24;18.00;99.90
6520;DHT22;3293;51.690;5.982;2023-10-13T08:08:44;18.10;99.90
6520;DHT22;3293;51.690;5.982;2023-10-13T08:13:49;18.30;99.90
6520;DHT22;3293;51.690;5.982;2023-10-13T08:18:58;18.40;99.90
6520;DHT22;3293;51.690;5.982;2023-10-13T08:24:01;18.60;99.90
6520;DHT22;3293;51.690;5.982;2023-10-13T08:29:06;18.70;99.90
6520;DHT22;3293;51.690;5.982;2023-10-13T08:34:18;18.80;99.90
6520;DHT22;3293;51.690;5.982;2023-10-13T08:39:23;18.90;99.90
6520;DHT22;3293;51.690;5.982;2023-10-13T08:44:44;19.00;99.90
6520;DHT22;3293;51.690;5.982;2023-10-13T08:49:51;19.20;99.90
6520;DHT22;3293;51.690;5.982;2023-10-13T08:54:53;19.40;99.90
6520;DHT22;3293;51.690;5.982;2023-10-13T09:00:04;19.70;99.90
6520;DHT22;3293;51.690;5.982;2023-10-13T09:05:27;19.90;99.90
6520;DHT22;3293;51.690;5.982;2023-10-13T09:10:42;19.90;99.90
6520;DHT22;3293;51.690;5.982;2023-10-13T09:16:09;20.20;99.90
6520;DHT22;3293;51.690;5.982;2023-10-13T09:21:15;20.10;99.90
6520;DHT22;3293;51.690;5.982;2023-10-13T09:26:34;20.00;99.90
6520;DHT22;3293;51.690;5.982;2023-10-13T09:31:36;20.00;99.90
6520;DHT22;3293;51.690;5.982;2023-10-13T09:36:38;20.00;99.90
6520;DHT22;3293;51.690;5.982;2023-10-13T09:41:40;19.90;99.90
6520;DHT22;3293;51.690;5.982;2023-10-13T09:46:40;20.00;99.90
6520;DHT22;3293;51.690;5.982;2023-10-13T09:51:44;19.90;99.90
6520;DHT22;3293;51.690;5.982;2023-10-13T09:56:57;19.90;99.90
6520;DHT22;3293;51.690;5.982;2023-10-13T10:02:06;20.00;99.90
6520;DHT22;3293;51.690;5.982;2023-10-13T10:07:26;20.10;99.90
6520;DHT22;3293;51.690;5.982;2023-10-13T10:12:47;20.50;99.90
6520;DHT22;3293;51.690;5.982;2023-10-13T10:17:48;20.40;99.90
6520;DHT22;3293;51.690;5.982;2023-10-13T10:22:59;20.50;99.90
6520;DHT22;3293;51.690;5.982;2023-10-13T10:28:00;20.70;99.90
6520;DHT22;3293;51.690;5.982;2023-10-13T10:33:01;20.90;99.90
6520;DHT22;3293;51.690;5.982;2023-10-13T10:38:16;21.10;99.90
6520;DHT22;3293;51.690;5.982;2023-10-13T10:43:38;21.10;99.90
6520;DHT22;3293;51.690;5.982;2023-10-13T10:48:41;21.00;99.90
6520;DHT22;3293;51.690;5.982;2023-10-13T10:53:44;20.80;99.90
6520;DHT22;3293;51.690;5.982;2023-10-13T10:58:44;20.80;99.90
6520;DHT22;3293;51.690;5.982;2023-10-13T11:09:05;20.70;99.90
6520;DHT22;3293;51.690;5.982;2023-10-13T11:14:31;20.90;99.90
6520;DHT22;3293;51.690;5.982;2023-10-13T11:19:38;21.00;99.90
6520;DHT22;3293;51.690;5.982;2023-10-13T11:24:41;21.20;99.90
6520;DHT22;3293;51.690;5.982;2023-10-13T11:29:42;21.50;99.90
6520;DHT22;3293;51.690;5.982;2023-10-13T11:34:41;21.80;99.90
6520;DHT22;3293;51.690;5.982;2023-10-13T11:39:41;22.00;99.90
6520;DHT22;3293;51.690;5.982;2023-10-13T11:44:43;22.00;99.90
6520;DHT22;3293;51.690;5.982;2023-10-13T11:49:43;21.80;99.90
6520;DHT22;3293;51.690;5.982;2023-10-13T11:54:43;21.80;99.90
6520;DHT22;3293;51.690;5.982;2023-10-13T11:59:43;21.90;99.90
6520;DHT22;3293;51.690;5.982;2023-10-13T12:04:45;22.10;99.90
6520;DHT22;3293;51.690;5.982;2023-10-13T12:09:58;22.20;99.90
6520;DHT22;3293;51.690;5.982;2023-10-13T12:14:58;22.20;99.70
6520;DHT22;3293;51.690;5.982;2023-10-13T12:20:08;22.30;99.90
6520;DHT22;3293;51.690;5.982;2023-10-13T12:25:18;22.40;99.10
6520;DHT22;3293;51.690;5.982;2023-10-13T12:30:33;22.40;97.80
6520;DHT22;3293;51.690;5.982;2023-10-13T12:35:48;22.40;98.20
6520;DHT22;3293;51.690;5.982;2023-10-13T12:41:08;22.50;98.50
6520;DHT22;3293;51.690;5.982;2023-10-13T12:46:26;22.70;97.00
6520;DHT22;3293;51.690;5.982;2023-10-13T12:51:44;22.90;97.40
6520;DHT22;3293;51.690;5.982;2023-10-13T12:56:50;22.90;96.20
6520;DHT22;3293;51.690;5.982;2023-10-13T13:01:56;23.00;95.90
6520;DHT22;3293;51.690;5.982;2023-10-13T13:06:56;23.00;96.00
6520;DHT22;3293;51.690;5.982;2023-10-13T13:11:56;22.80;95.90
6520;DHT22;3293;51.690;5.982;2023-10-13T13:16:59;22.70;95.80
6520;DHT22;3293;51.690;5.982;2023-10-13T13:22:09;22.70;95.90
6520;DHT22;3293;51.690;5.982;2023-10-13T13:27:12;22.80;96.20
6520;DHT22;3293;51.690;5.982;2023-10-13T13:32:19;22.80;96.60
6520;DHT22;3293;51.690;5.982;2023-10-13T13:37:23;22.70;96.00
6520;DHT22;3293;51.690;5.982;2023-10-13T13:42:27;22.60;96.30
6520;DHT22;3293;51.690;5.982;2023-10-13T13:47:26;22.50;95.00
6520;DHT22;3293;51.690;5.982;2023-10-13T13:52:28;22.40;94.90
6520;DHT22;3293;51.690;5.982;2023-10-13T13:57:33;22.50;95.30
6520;DHT22;3293;51.690;5.982;2023-10-13T14:02:33;22.40;95.00
6520;DHT22;3293;51.690;5.982;2023-10-13T14:07:34;22.30;95.30
6520;DHT22;3293;51.690;5.982;2023-10-13T14:12:38;22.20;95.60
6520;DHT22;3293;51.690;5.982;2023-10-13T14:17:41;22.20;96.90
6520;DHT22;3293;51.690;5.982;2023-10-13T14:22:42;22.10;97.00
6520;DHT22;3293;51.690;5.982;2023-10-13T14:27:42;22.00;96.00
6520;DHT22;3293;51.690;5.982;2023-10-13T14:32:42;22.00;96.70
6520;DHT22;3293;51.690;5.982;2023-10-13T14:37:42;22.00;95.40
6520;DHT22;3293;51.690;5.982;2023-10-13T14:42:42;22.00;95.90
6520;DHT22;3293;51.690;5.982;2023-10-13T14:47:43;22.10;96.20
6520;DHT22;3293;51.690;5.982;2023-10-13T14:52:43;22.10;96.10
6520;DHT22;3293;51.690;5.982;2023-10-13T14:57:43;22.10;95.60
6520;DHT22;3293;51.690;5.982;2023-10-13T15:02:43;22.10;94.70
6520;DHT22;3293;51.690;5.982;2023-10-13T15:07:43;22.10;95.70
6520;DHT22;3293;51.690;5.982;2023-10-13T15:12:44;22.00;95.90
6520;DHT22;3293;51.690;5.982;2023-10-13T15:17:45;22.00;95.80
6520;DHT22;3293;51.690;5.982;2023-10-13T15:22:47;21.90;95.80
6520;DHT22;3293;51.690;5.982;2023-10-13T15:27:56;21.90;96.40
6520;DHT22;3293;51.690;5.982;2023-10-13T15:32:56;21.80;96.80
6520;DHT22;3293;51.690;5.982;2023-10-13T15:37:57;21.70;98.30
6520;DHT22;3293;51.690;5.982;2023-10-13T15:42:56;21.60;99.80
6520;DHT22;3293;51.690;5.982;2023-10-13T15:48:00;21.40;99.90
6520;DHT22;3293;51.690;5.982;2023-10-13T15:53:01;21.10;99.90
6520;DHT22;3293;51.690;5.982;2023-10-13T15:58:01;20.60;99.90
6520;DHT22;3293;51.690;5.982;2023-10-13T16:03:02;20.40;99.90
6520;DHT22;3293;51.690;5.982;2023-10-13T16:08:03;20.20;99.90
6520;DHT22;3293;51.690;5.982;2023-10-13T16:13:03;20.10;99.90
6520;DHT22;3293;51.690;5.982;2023-10-13T16:18:05;19.90;99.90
6520;DHT22;3293;51.690;5.982;2023-10-13T16:23:06;19.70;99.90
6520;DHT22;3293;51.690;5.982;2023-10-13T16:28:06;19.50;99.90
6520;DHT22;3293;51.690;5.982;2023-10-13T16:33:07;19.40;99.90
6520;DHT22;3293;51.690;5.982;2023-10-13T16:38:07;19.20;99.90
6520;DHT22;3293;51.690;5.982;2023-10-13T16:43:07;19.20;99.90
6520;DHT22;3293;51.690;5.982;2023-10-13T16:48:07;19.10;99.90
6520;DHT22;3293;51.690;5.982;2023-10-13T16:53:08;19.10;99.90
6520;DHT22;3293;51.690;5.982;2023-10-13T16:58:09;19.00;99.90
6520;DHT22;3293;51.690;5.982;2023-10-13T17:03:11;19.10;99.90
6520;DHT22;3293;51.690;5.982;2023-10-13T17:08:12;19.20;99.90
6520;DHT22;3293;51.690;5.982;2023-10-13T17:13:13;19.20;99.90
6520;DHT22;3293;51.690;5.982;2023-10-13T17:18:13;19.10;99.90
6520;DHT22;3293;51.690;5.982;2023-10-13T17:23:13;19.20;99.90
6520;DHT22;3293;51.690;5.982;2023-10-13T17:28:13;19.00;99.90
6520;DHT22;3293;51.690;5.982;2023-10-13T17:33:13;18.60;99.90
6520;DHT22;3293;51.690;5.982;2023-10-13T17:38:14;18.20;99.90
6520;DHT22;3293;51.690;5.982;2023-10-13T17:43:14;18.00;99.90
6520;DHT22;3293;51.690;5.982;2023-10-13T17:48:14;17.90;99.90
6520;DHT22;3293;51.690;5.982;2023-10-13T17:53:14;17.80;99.90
6520;DHT22;3293;51.690;5.982;2023-10-13T17:58:15;17.80;99.90
6520;DHT22;3293;51.690;5.982;2023-10-13T18:03:16;17.70;99.90
6520;DHT22;3293;51.690;5.982;2023-10-13T18:08:16;17.70;99.90
6520;DHT22;3293;51.690;5.982;2023-10-13T18:13:16;17.70;99.90
6520;DHT22;3293;51.690;5.982;2023-10-13T18:18:16;17.60;99.90
6520;DHT22;3293;51.690;5.982;2023-10-13T18:23:16;17.60;99.90
6520;DHT22;3293;51.690;5.982;2023-10-13T18:28:17;17.60;99.90
6520;DHT22;3293;51.690;5.982;2023-10-13T18:33:20;17.70;99.90
6520;DHT22;3293;51.690;5.982;2023-10-13T18:38:20;17.70;99.90
6520;DHT22;3293;51.690;5.982;2023-10-13T18:43:23;17.70;99.90
6520;DHT22;3293;51.690;5.982;2023-10-13T18:48:23;17.70;99.90
6520;DHT22;3293;51.690;5.982;2023-10-13T18:53:24;17.80;99.90
6520;DHT22;3293;51.690;5.982;2023-10-13T18:58:24;17.80;99.90
6520;DHT22;3293;51.690;5.982;2023-10-13T19:03:24;17.70;99.90
6520;DHT22;3293;51.690;5.982;2023-10-13T19:08:26;17.70;99.90
6520;DHT22;3293;51.690;5.982;2023-10-13T19:13:28;17.60;99.90
6520;DHT22;3293;51.690;5.982;2023-10-13T19:18:28;17.60;99.90
6520;DHT22;3293;51.690;5.982;2023-10-13T19:23:29;17.60;99.90
6520;DHT22;3293;51.690;5.982;2023-10-13T19:28:29;17.50;99.90
6520;DHT22;3293;51.690;5.982;2023-10-13T19:33:29;17.50;99.90
6520;DHT22;3293;51.690;5.982;2023-10-13T19:38:31;17.50;99.90
6520;DHT22;3293;51.690;5.982;2023-10-13T19:43:31;17.50;99.90
6520;DHT22;3293;51.690;5.982;2023-10-13T19:48:31;17.50;99.90
6520;DHT22;3293;51.690;5.982;2023-10-13T19:53:34;17.50;99.90
6520;DHT22;3293;51.690;5.982;2023-10-13T19:58:34;17.50;99.90
6520;DHT22;3293;51.690;5.982;2023-10-13T20:03:35;17.50;99.90
6520;DHT22;3293;51.690;5.982;2023-10-13T20:08:40;17.40;99.90
6520;DHT22;3293;51.690;5.982;2023-10-13T20:13:43;17.40;99.90
6520;DHT22;3293;51.690;5.982;2023-10-13T20:18:55;17.40;99.90
6520;DHT22;3293;51.690;5.982;2023-10-13T20:23:57;17.30;99.90
6520;DHT22;3293;51.690;5.982;2023-10-13T20:29:00;17.30;99.90
6520;DHT22;3293;51.690;5.982;2023-10-13T20:34:01;17.30;99.90
6520;DHT22;3293;51.690;5.982;2023-10-13T20:39:01;17.30;99.90
6520;DHT22;3293;51.690;5.982;2023-10-13T20:44:01;17.30;99.90
6520;DHT22;3293;51.690;5.982;2023-10-13T20:49:00;17.30;99.90
6520;DHT22;3293;51.690;5.982;2023-10-13T20:54:01;17.30;99.90
6520;DHT22;3293;51.690;5.982;2023-10-13T20:59:01;17.30;99.90
6520;DHT22;3293;51.690;5.982;2023-10-13T21:04:01;17.40;99.90
6520;DHT22;3293;51.690;5.982;2023-10-13T21:09:01;17.30;99.90
6520;DHT22;3293;51.690;5.982;2023-10-13T21:14:01;17.40;99.90
6520;DHT22;3293;51.690;5.982;2023-10-13T21:19:02;17.40;99.90
6520;DHT22;3293;51.690;5.982;2023-10-13T21:24:05;17.30;99.90
6520;DHT22;3293;51.690;5.982;2023-10-13T21:29:09;17.40;99.90
6520;DHT22;3293;51.690;5.982;2023-10-13T21:34:09;17.50;99.90
6520;DHT22;3293;51.690;5.982;2023-10-13T21:39:09;17.50;99.90
6520;DHT22;3293;51.690;5.982;2023-10-13T21:44:10;17.50;99.90
6520;DHT22;3293;51.690;5.982;2023-10-13T21:49:12;17.50;99.90
6520;DHT22;3293;51.690;5.982;2023-10-13T21:54:12;17.50;99.90
6520;DHT22;3293;51.690;5.982;2023-10-13T21:59:12;17.60;99.90
6520;DHT22;3293;51.690;5.982;2023-10-13T22:04:12;17.60;99.90
6520;DHT22;3293;51.690;5.982;2023-10-13T22:09:20;17.70;99.90
6520;DHT22;3293;51.690;5.982;2023-10-13T22:14:21;17.70;99.90
6520;DHT22;3293;51.690;5.982;2023-10-13T22:19:24;17.70;99.90
6520;DHT22;3293;51.690;5.982;2023-10-13T22:24:30;17.80;99.90
6520;DHT22;3293;51.690;5.982;2023-10-13T22:29:30;17.80;99.90
6520;DHT22;3293;51.690;5.982;2023-10-13T22:34:31;17.80;99.90
6520;DHT22;3293;51.690;5.982;2023-10-13T22:39:34;17.80;99.90
6520;DHT22;3293;51.690;5.982;2023-10-13T22:44:34;17.80;99.90
6520;DHT22;3293;51.690;5.982;2023-10-13T22:49:37;17.50;99.90
6520;DHT22;3293;51.690;5.982;2023-10-13T22:54:39;17.20;99.90
6520;DHT22;3293;51.690;5.982;2023-10-13T22:59:41;17.10;99.90
6520;DHT22;3293;51.690;5.982;2023-10-13T23:04:41;16.90;99.90
6520;DHT22;3293;51.690;5.982;2023-10-13T23:09:41;16.90;99.90
6520;DHT22;3293;51.690;5.982;2023-10-13T23:14:48;16.80;99.90
6520;DHT22;3293;51.690;5.982;2023-10-13T23:19:50;16.80;99.90
6520;DHT22;3293;51.690;5.982;2023-10-13T23:24:52;16.80;99.90
6520;DHT22;3293;51.690;5.982;2023-10-13T23:29:52;16.70;99.90
6520;DHT22;3293;51.690;5.982;2023-10-13T23:34:53;16.70;99.90
6520;DHT22;3293;51.690;5.982;2023-10-13T23:39:54;16.10;99.90
6520;DHT22;3293;51.690;5.982;2023-10-13T23:44:55;15.60;99.90
6520;DHT22;3293;51.690;5.982;2023-10-13T23:50:06;15.20;99.90
6520;DHT22;3293;51.690;5.982;2023-10-13T23:55:16;14.90;99.90
